Terminal Aerodrome Forecast
Issued by NWS Mobile, AL

Home | Current Version | Previous Version | Text Only | Print | Product List | Glossary On
Versions: 1 2 3 4 5 6 7 8 9 10 11 12 13 14 15
000
FTUS44 KMOB 232320
TAFMOB
TAF
KMOB 232320Z 2400/2424 14005KT P6SM VCTS SCT050CB OVC110
     FM240300 04003KT P6SM SKC
     FM241200 07009KT 5SM BR FEW250
     FM241800 10011KT P6SM SCT035 BKN250 PROB30 2420/2424 VRB20G30KT
      3SM TSRA SCT025CB=

USA.gov is the U.S. government's official web portal to all federal, state and local government web resources and services.